Ringhals, Sweden

4:25 AM CEST on July 14, 2014 (GMT +0200)
Onsala (IKUNGSBA4) Elev 164 ft | 57.40 °N, 12.00 °E | Change Station

Current weather conditions updated 25 minutes ago

Overcast
Overcast
59.7 °F
Feels Like 59.7 °F
N
1.0
Wind Variable Wind from East
Gusts 9.0 mph

Today is forecast to be Warmer than yesterday. Showers possible in the afternoon.

Today
High -- | Low -- °F
--% Chance of Precip.
Yesterday
High -- | Low -- °F
Precip. -- in
4:35 AM 9:57 PM
Waning Gibbous, 96% visible
Pressure 29.62 in
Visibility 6.2 miles
Clouds Few 700 ft
Overcast 4800 ft
Dew Point 58 °F
Humidity 95%
Rainfall 0.00 in
Snow Depth Not available.
UV 0 out of 12
Pollen Not available.
Air Quality Not available.
Flu Activity Not available.
METAR ESGG 140220Z 11008KT 9999 FEW007 OVC048 14/13 Q1003

More Conditions Fewer Conditions

Pressure 29.62 in
Visibility 6.2 miles
Clouds Few 700 ft
Overcast 4800 ft
Dew Point 58 °F
Humidity 95%
Rainfall 0.00 in
Snow Depth Not available.
UV 0 out of 12
Pollen Not available.
Air Quality Not available.
Flu Activity Not available.
METAR ESGG 140220Z 11008KT 9999 FEW007 OVC048 14/13 Q1003

More Conditions Fewer Conditions

10-Day Weather Forecast

Almanac

Astronomy

Jul. 14, 2014 Rise Set
Actual Time 4:35 AM CEST 9:57 PM CEST
Civil Twilight 3:33 AM CEST 10:59 PM CEST
Nautical Twilight 1:49 AM CEST 12:45 AM CEST
Astronomical Twilight Sun does not rise Sun does not rise
Moon 10:25 PM CEST 7:40 AM CEST
Length of Visible Light 19h 25m
Length of Day
17h 22m
Tomorrow will be 2m 57s shorter.
Waning Gibbous, 96% of the Moon is Illuminated
Jul 13
Waning Gibbous
Jul 18
Last Quarter
Jul 26
New
Aug 3
First Quarter
Aug 10
Full

Yesterday's Extremes

Country Highs Country Lows

Community

WunderPhotos

Upload Photos

1,733,533 photos uploaded!

Nearby

Snow Depth

Not available.

Earthquake Activity

City Distance Mag. Time & Date
No recent earthquake activity has been reported nearby.
Minimum magnitude displayed is 2.5.

Coastal Water Temperatures

Place Temperature
No Stations Reporting

Nearby Weather Stations

Station Location Temp. Dew Point Humidity Wind Precip. Elev Updated Type
Onsala, Kungsbacka 59.7 °F 58 °F 95% East  at  1.0 mph 0.00 in / hr 164 ft 4:00 AM CEST Normal
Måberget, Fjärås 58.5 °F 58 °F 97% SE  at  3.1 mph 0.00 in / hr 121 ft 4:24 AM CEST Normal
Skallinge 58.3 °F 58 °F 99% South  at  0.0 mph 0.00 in / hr 233 ft 4:25 AM CEST Rapid Fire
Skällinge, örjarsÃ¥ker, Skällinge 58.3 °F 58 °F 99% South  at  3.8 mph 0.00 in / hr 243 ft 4:25 AM CEST Normal
Vallda 60.3 °F 58 °F 94% ESE  at  0.0 mph 0.00 in / hr 33 ft 4:25 AM CEST Rapid Fire
Saro/Budskar Cramer, Saro 59.7 °F 58 °F 95% East  at  2.0 mph 0.00 in / hr 16 ft 4:23 AM CEST Normal
Saro / Budskar, Saro 59.0 °F 57 °F 94% ESE  at  8.0 mph 0.00 in / hr 35 ft 4:16 AM CEST Normal
Lindome, Lindome 58.4 °F 56 °F 93% SW  at  2.0 mph 0.00 in / hr 98 ft 4:25 AM CEST Rapid Fire

Show More Stations Show Fewer Stations